Time;durP1;ratioP1;P1;durP2;ratioP2;P2;SDS_P1;SDS_P2;PMS_P1;PMS_P2;Temp;Humidity;BMP_temperature;BMP_pressure;BME280_temperature;BME280_humidity;BME280_pressure;Samples;Min_cycle;Max_cycle;Signal;HPM_P1;HPM_P2
2022/02/05 00:01:22;;;;;;;19.58;3.45;;;;;;;9.61;65.18;100009.28;4871033;28;122238;-86
2022/02/05 00:03:55;;;;;;;20.88;3.10;;;;;;;9.52;64.88;99995.63;4885351;28;123338;-86
2022/02/05 00:06:25;;;;;;;18.35;3.22;;;;;;;9.60;64.99;100015.22;4885163;28;121850;-85
2022/02/05 00:09:03;;;;;;;18.42;3.20;;;;;;;9.63;65.02;100025.25;4882600;28;122497;-85
2022/02/05 00:41:30;;;;;;;14.70;2.92;;;;;;;10.04;64.05;100040.22;4894791;28;120036;-88
2022/02/05 00:43:59;;;;;;;16.23;4.47;;;;;;;10.04;63.60;100040.22;4894169;28;119577;-88
2022/02/05 00:46:28;;;;;;;14.77;2.85;;;;;;;9.90;65.01;100016.97;4883208;28;122169;-88
2022/02/05 00:48:54;;;;;;;14.07;2.63;;;;;;;9.88;64.72;100015.91;4867989;28;120050;-88
2022/02/05 00:51:26;;;;;;;18.27;3.22;;;;;;;10.14;63.64;100045.19;4869045;28;122138;-88
2022/02/05 00:54:06;;;;;;;15.38;2.70;;;;;;;10.03;62.72;100044.94;4856289;28;123699;-88
2022/02/05 00:59:17;;;;;;;12.48;2.63;;;;;;;10.00;63.61;100069.78;4897452;28;120447;-88
2022/02/05 01:01:43;;;;;;;13.95;2.47;;;;;;;9.95;64.06;100075.88;4868548;28;123771;-88
2022/02/05 01:04:09;;;;;;;14.55;2.50;;;;;;;9.66;62.24;100041.53;4878750;28;119962;-88
2022/02/05 01:06:35;;;;;;;12.40;2.67;;;;;;;9.78;63.10;100065.25;4878860;28;123315;-88
2022/02/05 01:09:08;;;;;;;12.65;2.45;;;;;;;9.38;62.90;100045.50;4868936;28;119499;-88
2022/02/05 01:11:38;;;;;;;11.32;2.15;;;;;;;9.30;61.57;100066.97;4858218;28;121997;-90
2022/02/05 01:14:06;;;;;;;6.43;1.52;;;;;;;9.42;62.72;100128.22;4865536;28;121931;-87
2022/02/05 01:19:30;;;;;;;4.65;1.23;;;;;;;9.25;61.59;100135.22;4884376;28;122112;-89
2022/02/05 01:21:58;;;;;;;4.00;1.00;;;;;;;8.95;60.69;100120.41;4855275;28;123678;-89
2022/02/05 01:24:24;;;;;;;3.78;1.20;;;;;;;8.95;61.01;100120.41;4872783;28;119921;-88
2022/02/05 01:26:57;;;;;;;9.40;1.30;;;;;;;8.71;61.10;100095.56;4856465;28;122219;-88
2022/02/05 01:29:49;;;;;;;6.20;1.40;;;;;;;8.73;61.70;100112.28;4866656;28;119574;-88
2022/02/05 01:32:24;;;;;;;4.80;1.10;;;;;;;8.93;62.87;100154.44;4879684;28;122158;-89
2022/02/05 01:59:13;;;;;;;9.20;1.80;;;;;;;8.75;62.44;100148.16;4871998;28;119481;-89
2022/02/05 02:09:38;;;;;;;;;;;;;;;8.59;62.95;100177.25;4891152;28;120196;-89
2022/02/05 02:15:46;;;;;;;6.30;1.30;;;;;;;8.66;64.67;100184.41;4871204;28;121329;-89
2022/02/05 02:21:38;;;;;;;6.28;1.30;;;;;;;8.78;64.70;100183.56;4874170;28;120586;-89
2022/02/05 02:23:57;;;;;;;9.07;1.85;;;;;;;8.71;64.23;100169.41;4871370;28;122408;-90
2022/02/05 02:31:22;;;;;;;11.43;2.10;;;;;;;8.90;64.50;100177.22;4868155;28;122764;-89
2022/02/05 02:33:52;;;;;;;8.82;1.73;;;;;;;8.71;64.56;100136.59;4875663;28;122881;-89
2022/02/05 02:36:43;;;;;;;14.57;1.90;;;;;;;8.95;64.37;100162.19;4867360;28;120115;-89
2022/02/05 02:39:20;;;;;;;13.52;2.40;;;;;;;8.91;63.41;100161.56;4852406;28;123365;-88
2022/02/05 02:41:53;;;;;;;11.73;1.90;;;;;;;8.94;63.87;100168.88;4881387;28;119844;-88
2022/02/05 02:44:18;;;;;;;10.90;2.53;;;;;;;8.74;63.37;100141.91;4873693;28;122135;-89
2022/02/05 02:46:44;;;;;;;15.32;2.28;;;;;;;8.99;63.36;100173.00;4872474;28;123125;-89
2022/02/05 02:49:14;;;;;;;12.82;2.30;;;;;;;8.85;62.83;100160.66;4892804;28;120323;-88
2022/02/05 02:59:49;;;;;;;14.35;3.13;;;;;;;8.99;64.32;100182.00;4876883;28;122116;-89
2022/02/05 03:02:18;;;;;;;19.35;2.65;;;;;;;8.95;64.16;100180.59;4886184;28;119894;-89
2022/02/05 03:04:45;;;;;;;11.82;2.35;;;;;;;9.06;64.63;100200.84;4876146;28;122382;-89
2022/02/05 03:07:10;;;;;;;17.33;2.45;;;;;;;8.99;67.10;100201.13;4871760;28;123011;-89
2022/02/05 03:09:36;;;;;;;20.33;3.03;;;;;;;9.21;66.15;100217.44;4880833;28;120392;-88
2022/02/05 03:12:03;;;;;;;13.68;2.63;;;;;;;9.20;65.36;100196.78;4875059;28;122322;-89
2022/02/05 03:14:28;;;;;;;14.80;2.42;;;;;;;9.20;65.52;100192.06;4892055;28;120497;-88
2022/02/05 03:17:02;;;;;;;11.93;1.92;;;;;;;9.26;65.03;100199.69;4869487;28;120338;-89
2022/02/05 03:19:28;;;;;;;6.78;1.63;;;;;;;9.39;66.22;100217.50;4858640;28;122238;-89
2022/02/05 03:21:53;;;;;;;5.35;1.15;;;;;;;9.12;64.12;100179.13;4858050;28;123075;-88
2022/02/05 03:24:19;;;;;;;4.72;1.10;;;;;;;9.18;65.39;100178.06;4869833;28;122402;-88
2022/02/05 03:26:45;;;;;;;4.00;0.90;;;;;;;9.36;65.24;100218.41;4887716;28;123208;-89
2022/02/05 03:29:12;;;;;;;9.18;1.65;;;;;;;9.29;63.60;100212.47;4866658;28;119828;-88
2022/02/05 03:31:39;;;;;;;6.78;1.40;;;;;;;9.32;62.41;100233.44;4875015;28;122417;-90
2022/02/05 03:34:05;;;;;;;8.07;1.40;;;;;;;9.21;62.07;100237.34;4883689;28;120585;-89
2022/02/05 03:36:32;;;;;;;11.82;1.83;;;;;;;9.12;61.35;100242.06;4888621;28;119752;-89
2022/02/05 03:38:59;;;;;;;7.53;1.70;;;;;;;8.95;61.50;100244.25;4869222;28;123171;-89
2022/02/05 03:41:25;;;;;;;8.23;1.88;;;;;;;8.83;61.26;100242.38;4871385;28;122408;-89
2022/02/05 03:43:51;;;;;;;10.07;1.85;;;;;;;8.77;62.48;100244.19;4889722;28;119667;-89
2022/02/05 03:46:17;;;;;;;11.93;1.92;;;;;;;8.79;61.79;100274.59;4900419;28;120443;-89
2022/02/05 03:48:42;;;;;;;10.00;1.85;;;;;;;8.63;61.58;100256.41;4883076;28;119845;-89
2022/02/05 03:51:08;;;;;;;10.70;2.47;;;;;;;8.47;62.71;100245.66;4881329;28;120966;-91
2022/02/05 03:53:37;;;;;;;10.75;1.80;;;;;;;8.59;63.90;100272.94;4883773;28;123448;-89
2022/02/05 03:56:03;;;;;;;12.05;1.95;;;;;;;8.43;64.30;100254.00;4861647;28;121665;-88
2022/02/05 03:58:28;;;;;;;14.25;2.53;;;;;;;8.46;64.06;100274.97;4869625;28;122731;-89
2022/02/05 04:00:54;;;;;;;10.77;2.47;;;;;;;8.58;63.10;100284.31;4855830;28;122890;-90
2022/02/05 04:03:20;;;;;;;14.95;2.25;;;;;;;8.45;65.02;100259.78;4860722;28;119493;-90
2022/02/05 04:05:45;;;;;;;20.52;2.92;;;;;;;8.43;63.77;100264.16;4898978;28;123179;-89
2022/02/05 04:08:13;;;;;;;18.45;3.22;;;;;;;8.50;63.00;100280.31;4858279;28;119966;-89
2022/02/05 04:10:46;;;;;;;19.25;3.20;;;;;;;8.73;63.49;100320.09;4884669;28;119612;-88
2022/02/05 04:16:21;;;;;;;19.17;3.10;;;;;;;8.72;63.88;100334.97;4876853;28;121017;-89
2022/02/05 04:18:46;;;;;;;17.48;3.10;;;;;;;8.58;63.02;100311.66;4880253;28;122270;-89
2022/02/05 04:21:12;;;;;;;16.48;2.80;;;;;;;8.61;63.65;100319.72;4869208;28;123143;-90
2022/02/05 04:23:39;;;;;;;19.80;3.15;;;;;;;8.69;63.46;100322.19;4881455;28;119537;-89
2022/02/05 04:26:06;;;;;;;16.40;3.50;;;;;;;8.66;62.58;100326.59;4858427;28;123954;-89
2022/02/05 04:28:32;;;;;;;17.35;3.72;;;;;;;8.39;63.58;100280.69;4881017;28;120092;-89
2022/02/05 04:30:57;;;;;;;21.00;3.53;;;;;;;8.44;63.11;100291.06;4884175;28;122203;-88
2022/02/05 04:33:23;;;;;;;19.88;3.75;;;;;;;8.63;63.54;100321.25;4871727;28;123786;-90
2022/02/05 04:35:49;;;;;;;23.95;3.90;;;;;;;8.45;63.45;100294.53;4891027;28;120296;-89
2022/02/05 04:38:15;;;;;;;19.48;3.47;;;;;;;8.68;62.64;100335.13;4862179;28;122928;-89
2022/02/05 04:40:49;;;;;;;20.13;3.45;;;;;;;8.43;62.98;100303.19;4864406;28;122556;-89
2022/02/05 04:51:14;;;;;;;17.75;2.95;;;;;;;8.73;65.80;100348.22;4895606;28;119523;-89
2022/02/05 05:01:45;;;;;;;20.17;3.88;;;;;;;8.69;65.57;100322.97;4884275;28;123321;-89
2022/02/05 05:10:09;;;;;;;19.00;3.25;;;;;;;9.00;64.73;100361.31;4886806;28;123362;-89
2022/02/05 05:20:54;;;;;;;17.65;3.00;;;;;;;8.90;64.26;100379.63;4836584;28;122399;-89
2022/02/05 05:23:20;;;;;;;23.50;3.47;;;;;;;8.99;63.29;100384.41;4860368;28;123580;-90
2022/02/05 05:25:45;;;;;;;22.48;3.95;;;;;;;8.89;62.76;100382.81;4846952;28;119837;-89
2022/02/05 05:28:11;;;;;;;22.35;4.10;;;;;;;8.59;64.95;100338.56;4855983;28;120026;-89
2022/02/05 05:30:36;;;;;;;24.30;3.72;;;;;;;9.01;64.07;100406.63;4827869;28;122914;-89
2022/02/05 05:33:02;;;;;;;19.65;3.17;;;;;;;9.00;66.59;100396.13;4814863;28;119869;-89
2022/02/05 05:35:27;;;;;;;23.42;3.75;;;;;;;9.08;65.70;100400.13;4855745;28;121851;-89
2022/02/05 05:37:53;;;;;;;16.83;2.88;;;;;;;8.93;64.02;100373.25;4843341;28;120234;-89
2022/02/05 05:40:22;;;;;;;24.63;3.92;;;;;;;8.93;65.18;100372.50;4824529;28;121940;-89
2022/02/05 05:43:01;;;;;;;19.13;3.63;;;;;;;9.28;64.80;100418.94;4832956;28;122982;-89
2022/02/05 05:48:09;;;;;;;18.27;3.40;;;;;;;9.27;62.72;100414.69;4860472;28;122030;-89
2022/02/05 05:53:09;;;;;;;17.67;3.45;;;;;;;9.17;62.60;100422.06;4903703;28;119850;-89
2022/02/05 05:55:43;;;;;;;20.17;3.22;;;;;;;9.16;61.34;100428.75;4877115;28;120290;-89
2022/02/05 05:58:11;;;;;;;18.60;3.33;;;;;;;9.11;63.34;100421.88;4873260;28;121509;-87
2022/02/05 06:00:38;;;;;;;19.00;3.20;;;;;;;9.17;62.44;100441.22;4881796;28;122383;-87
2022/02/05 06:03:04;;;;;;;18.35;3.13;;;;;;;8.76;63.19;100393.06;4857605;28;123279;-87
2022/02/05 06:05:30;;;;;;;17.55;3.92;;;;;;;9.08;62.49;100444.66;4865059;28;119597;-87
2022/02/05 06:07:55;;;;;;;17.80;4.15;;;;;;;8.95;63.89;100424.78;4884424;28;121785;-88
2022/02/05 06:10:21;;;;;;;21.25;3.75;;;;;;;8.77;64.19;100398.09;4895135;28;120455;-88
2022/02/05 06:12:47;;;;;;;13.43;3.15;;;;;;;9.02;62.61;100440.22;4848481;28;120609;-88
2022/02/05 06:15:12;;;;;;;22.23;4.28;;;;;;;8.71;61.74;100404.56;4858565;28;122104;-88
2022/02/05 06:17:38;;;;;;;20.92;4.05;;;;;;;9.08;62.32;100461.06;4852647;28;123646;-88
2022/02/05 06:20:06;;;;;;;23.60;3.70;;;;;;;8.99;64.70;100447.34;4882173;28;122152;-88
2022/02/05 06:22:32;;;;;;;18.63;3.70;;;;;;;8.86;64.68;100422.00;4860327;28;123298;-88
2022/02/05 06:24:58;;;;;;;23.90;3.90;;;;;;;8.96;63.86;100431.78;4885981;28;119589;-88
2022/02/05 06:27:24;;;;;;;21.80;4.28;;;;;;;9.01;62.99;100441.41;4869460;28;122289;-87
2022/02/05 06:29:49;;;;;;;18.30;3.97;;;;;;;9.12;63.65;100472.66;4869494;28;122127;-89
2022/02/05 06:32:17;;;;;;;20.17;4.30;;;;;;;9.15;65.11;100471.75;4873495;28;119557;-88
2022/02/05 06:34:44;;;;;;;23.55;5.57;;;;;;;9.01;62.85;100447.66;4875310;28;121128;-89
2022/02/05 06:37:10;;;;;;;24.65;5.18;;;;;;;9.14;61.84;100475.69;4870023;28;123383;-88
2022/02/05 06:39:36;;;;;;;23.67;5.13;;;;;;;8.70;62.08;100416.69;4882991;28;120117;-88
2022/02/05 06:42:01;;;;;;;21.25;4.38;;;;;;;8.91;62.48;100456.97;4877578;28;120129;-89
2022/02/05 06:44:27;;;;;;;24.50;4.40;;;;;;;9.11;61.74;100479.34;4867046;28;119601;-89
2022/02/05 06:46:55;;;;;;;24.40;4.65;;;;;;;8.87;61.04;100448.13;4881076;28;122188;-88
2022/02/05 06:49:26;;;;;;;29.52;5.57;;;;;;;9.04;61.47;100487.03;4865029;28;123374;-88
2022/02/05 06:51:53;;;;;;;21.85;4.85;;;;;;;9.04;62.09;100493.28;4862764;28;119686;-89
2022/02/05 06:54:19;;;;;;;19.88;4.30;;;;;;;8.96;64.06;100483.00;4868021;28;122732;-89
2022/02/05 06:56:44;;;;;;;29.92;4.80;;;;;;;8.93;63.56;100479.19;4858894;28;123801;-89
2022/02/05 06:59:10;;;;;;;21.45;4.30;;;;;;;8.93;65.01;100473.72;4869873;28;120723;-88
2022/02/05 07:01:38;;;;;;;21.70;3.92;;;;;;;9.08;64.95;100482.97;4877378;28;122135;-89
2022/02/05 07:04:05;;;;;;;18.20;3.95;;;;;;;9.16;63.07;100497.16;4878862;28;120470;-88
2022/02/05 07:06:34;;;;;;;24.00;4.75;;;;;;;9.09;62.73;100489.97;4883430;28;124648;-89
2022/02/05 07:09:02;;;;;;;21.08;4.50;;;;;;;9.11;61.34;100503.97;4902744;28;120029;-88
2022/02/05 07:11:28;;;;;;;21.45;4.20;;;;;;;8.83;61.39;100478.34;4864697;28;121308;-90
2022/02/05 07:13:55;;;;;;;24.98;4.32;;;;;;;9.05;61.94;100515.94;4857910;28;122239;-89
2022/02/05 07:16:35;;;;;;;23.17;4.60;;;;;;;9.09;62.29;100524.78;4876324;28;120623;-89
2022/02/05 07:31:54;;;;;;;26.15;5.70;;;;;;;9.19;61.14;100545.50;4879158;28;120217;-87
2022/02/05 07:34:28;;;;;;;30.60;4.93;;;;;;;8.99;63.24;100518.47;4888311;28;119872;-87
2022/02/05 07:37:01;;;;;;;21.58;4.88;;;;;;;9.27;63.07;100537.84;4892108;28;120016;-87
2022/02/05 07:39:28;;;;;;;28.58;4.38;;;;;;;9.33;65.07;100541.53;4869387;28;121538;-86
2022/02/05 07:41:59;;;;;;;20.25;3.90;;;;;;;9.49;63.24;100563.25;4875698;28;122494;-87
2022/02/05 07:44:25;;;;;;;24.42;4.13;;;;;;;9.44;62.87;100536.44;4881953;28;120279;-88
2022/02/05 07:46:55;;;;;;;26.25;4.63;;;;;;;9.54;62.28;100557.22;4861543;28;119656;-88
2022/02/05 07:49:23;;;;;;;21.02;4.45;;;;;;;9.52;61.96;100554.16;4881019;28;122866;-87
2022/02/05 07:51:51;;;;;;;18.30;3.35;;;;;;;9.42;61.79;100528.66;4879712;28;119905;-88
2022/02/05 07:54:17;;;;;;;26.55;4.75;;;;;;;9.74;61.75;100567.84;4888778;28;122319;-88
2022/02/05 07:56:45;;;;;;;26.50;5.95;;;;;;;9.73;60.50;100563.56;4875026;28;123610;-88
2022/02/05 07:59:15;;;;;;;26.75;5.43;;;;;;;9.43;60.61;100518.47;4885735;28;119922;-87
2022/02/05 08:01:45;;;;;;;25.08;4.90;;;;;;;9.26;60.33;100503.47;4857159;28;122339;-88
2022/02/05 08:04:11;;;;;;;24.63;4.05;;;;;;;9.58;60.29;100551.59;4863541;28;122557;-88
2022/02/05 08:06:37;;;;;;;23.27;4.75;;;;;;;9.75;59.67;100583.81;4879141;28;120027;-88
2022/02/05 08:09:24;;;;;;;26.90;5.30;;;;;;;9.73;59.50;100583.50;4891945;28;121094;-88
2022/02/05 08:11:58;;;;;;;28.92;5.10;;;;;;;9.73;59.67;100586.25;4867005;28;120598;-88
2022/02/05 08:14:26;;;;;;;24.42;4.68;;;;;;;9.59;59.79;100564.84;4856018;28;122309;-88
2022/02/05 08:19:17;;;;;;;26.02;4.65;;;;;;;9.59;59.95;100586.75;4884251;28;120346;-89
2022/02/05 08:21:46;;;;;;;29.40;5.57;;;;;;;9.57;59.64;100580.19;4852685;28;122019;-88
2022/02/05 08:24:15;;;;;;;26.88;4.68;;;;;;;9.63;60.13;100590.13;4866748;28;122616;-88
2022/02/05 08:26:40;;;;;;;29.80;5.78;;;;;;;9.59;59.76;100580.50;4857894;28;119733;-88
2022/02/05 08:29:06;;;;;;;30.20;5.00;;;;;;;9.19;60.43;100521.66;4877321;28;119955;-90
2022/02/05 08:31:32;;;;;;;24.58;5.20;;;;;;;9.66;61.09;100581.00;4865100;28;119805;-89
2022/02/05 08:34:00;;;;;;;27.27;4.60;;;;;;;9.32;62.08;100529.06;4858160;28;122908;-88
2022/02/05 08:36:29;;;;;;;33.35;4.70;;;;;;;9.59;63.38;100562.09;4867766;28;124376;-89
2022/02/05 08:38:58;;;;;;;25.73;5.63;;;;;;;9.84;63.76;100581.13;4858367;28;119937;-88
2022/02/05 08:41:26;;;;;;;27.33;5.15;;;;;;;9.89;64.01;100596.22;4880483;28;122408;-89
2022/02/05 08:43:52;;;;;;;30.63;5.30;;;;;;;9.44;61.87;100511.78;4867672;28;123185;-88
2022/02/05 08:46:18;;;;;;;27.85;5.22;;;;;;;10.07;64.08;100598.31;4884202;28;121721;-90
2022/02/05 08:48:44;;;;;;;31.85;5.65;;;;;;;10.16;66.02;100598.34;4875419;28;121984;-91
2022/02/05 08:51:13;;;;;;;26.75;4.85;;;;;;;10.19;66.01;100596.72;4873048;28;122873;-92
2022/02/05 08:53:39;;;;;;;28.40;4.53;;;;;;;10.28;65.58;100596.78;4859298;28;119971;-91
2022/02/05 08:56:05;;;;;;;26.23;4.65;;;;;;;10.29;63.97;100601.81;4863558;28;122909;-90
2022/02/05 08:58:34;;;;;;;26.42;4.82;;;;;;;10.43;64.05;100609.50;4874299;28;119805;-88
2022/02/05 09:03:41;;;;;;;23.52;4.70;;;;;;;10.53;61.39;100593.84;4868536;28;123069;-87
2022/02/05 09:06:10;;;;;;;26.77;4.67;;;;;;;10.73;61.38;100609.91;4873048;28;120445;-86
2022/02/05 09:08:46;;;;;;;28.85;4.72;;;;;;;10.89;63.02;100601.44;4871247;28;122957;-87
2022/02/05 09:16:13;;;;;;;25.15;4.90;;;;;;;11.05;59.48;100592.91;4880131;28;124209;-89
2022/02/05 09:18:40;;;;;;;27.67;5.85;;;;;;;11.00;58.97;100595.50;4887336;28;119971;-86
2022/02/05 09:21:07;;;;;;;21.00;4.90;;;;;;;10.97;60.17;100607.38;4871417;28;119895;-87
2022/02/05 09:23:38;;;;;;;26.65;4.90;;;;;;;10.96;59.39;100603.88;4870214;28;123661;-87
2022/02/05 09:26:07;;;;;;;24.83;5.18;;;;;;;10.81;60.20;100593.91;4887751;28;120397;-87
2022/02/05 09:28:36;;;;;;;34.92;6.32;;;;;;;10.74;59.83;100589.50;4856404;28;121980;-87
2022/02/05 09:31:28;;;;;;;27.70;4.72;;;;;;;10.82;59.65;100607.19;4869227;28;123133;-87
2022/02/05 09:33:51;;;;;;;28.08;5.10;;;;;;;10.76;60.73;100581.56;4870200;28;120184;-88
2022/02/05 09:36:16;;;;;;;27.35;5.32;;;;;;;10.93;63.29;100606.78;4884807;28;122582;-86
2022/02/05 09:38:47;;;;;;;31.33;5.38;;;;;;;11.01;61.49;100610.75;4854737;28;119816;-88
2022/02/05 09:41:13;;;;;;;29.00;4.72;;;;;;;10.98;61.97;100593.19;4870923;28;122107;-89
2022/02/05 09:43:39;;;;;;;27.83;4.57;;;;;;;11.04;64.76;100601.59;4865914;28;119956;-89
2022/02/05 09:46:04;;;;;;;25.67;4.60;;;;;;;11.24;62.99;100620.38;4869781;28;120890;-88
2022/02/05 09:48:31;;;;;;;24.77;4.82;;;;;;;11.17;63.50;100599.50;4867420;28;121962;-88
2022/02/05 09:51:05;;;;;;;26.67;4.90;;;;;;;11.27;63.08;100605.75;4850070;28;123819;-89
2022/02/05 09:53:31;;;;;;;22.92;4.43;;;;;;;10.96;62.30;100557.22;4886265;28;120564;-89
2022/02/05 09:55:57;;;;;;;28.30;5.13;;;;;;;11.34;62.36;100613.66;4869101;28;122996;-89
2022/02/05 09:58:23;;;;;;;21.38;4.60;;;;;;;10.96;62.76;100551.72;4877679;28;123213;-89
2022/02/05 10:00:59;;;;;;;21.40;4.13;;;;;;;11.19;63.21;100577.06;4854360;28;121985;-89
2022/02/05 10:03:27;;;;;;;23.05;4.18;;;;;;;11.13;61.06;100570.66;4846656;28;123134;-89
2022/02/05 10:06:12;;;;;;;22.60;4.28;;;;;;;11.54;60.42;100616.72;4849803;28;121347;-89
2022/02/05 10:08:45;;;;;;;17.00;3.40;;;;;;;11.24;61.42;100581.94;4868173;28;122630;-89
2022/02/05 10:11:13;;;;;;;22.85;4.35;;;;;;;11.60;59.11;100639.66;4871564;28;120657;-88
2022/02/05 10:13:41;;;;;;;20.20;3.90;;;;;;;11.35;62.02;100593.22;4883234;28;120271;-88
2022/02/05 10:16:08;;;;;;;17.13;3.53;;;;;;;11.71;63.89;100641.16;4870642;28;121881;-89
2022/02/05 10:18:40;;;;;;;20.45;3.50;;;;;;;11.89;64.17;100632.94;4888068;28;120536;-89
2022/02/05 10:21:27;;;;;;;17.67;3.45;;;;;;;11.98;63.72;100632.91;4853734;28;120718;-89
2022/02/05 10:23:57;;;;;;;19.02;3.60;;;;;;;11.96;62.01;100630.63;4865669;28;123189;-88
2022/02/05 10:26:35;;;;;;;26.67;4.15;;;;;;;11.91;61.16;100617.50;4862787;28;120521;-89
2022/02/05 10:29:04;;;;;;;23.15;4.00;;;;;;;12.06;61.62;100652.59;4871836;28;121390;-90
2022/02/05 10:31:50;;;;;;;19.38;4.18;;;;;;;12.10;58.87;100656.72;4852974;28;124425;-90
2022/02/05 10:34:16;;;;;;;20.35;4.25;;;;;;;11.93;60.40;100623.31;4869473;28;120128;-88
2022/02/05 10:36:43;;;;;;;19.25;4.00;;;;;;;11.92;60.56;100629.25;4885509;28;120969;-90
2022/02/05 10:44:35;;;;;;;;;;;;;;;11.89;59.69;100652.16;4875975;28;123315;-90
2022/02/05 10:47:00;;;;;;;21.00;4.45;;;;;;;11.81;58.24;100645.44;4881302;28;119637;-89
2022/02/05 10:49:39;;;;;;;17.92;4.10;;;;;;;11.80;60.61;100641.16;4856508;28;124083;-89
2022/02/05 10:52:07;;;;;;;19.73;4.13;;;;;;;11.63;58.78;100613.22;4875379;28;123159;-90
2022/02/05 10:54:52;;;;;;;13.68;3.42;;;;;;;11.47;59.10;100606.06;4858189;28;119642;-90
2022/02/05 10:57:25;;;;;;;16.08;3.47;;;;;;;11.31;58.55;100587.13;4874934;28;122074;-90
2022/02/05 11:05:16;;;;;;;17.05;4.20;;;;;;;11.59;58.28;100634.59;4860377;28;123246;-89
2022/02/05 11:05:48;;;;;;;18.23;3.85;;;;;;;11.45;58.69;100624.22;4867665;28;122833;-89
2022/02/05 11:08:14;;;;;;;18.42;4.30;;;;;;;11.35;57.35;100615.97;4859555;28;121305;-90
2022/02/05 11:21:18;;;;;;;27.10;5.25;;;;;;;11.30;58.68;100599.34;4869652;28;122109;-90
2022/02/05 11:23:50;;;;;;;24.05;4.90;;;;;;;11.40;58.46;100614.59;4856894;28;119648;-89
2022/02/05 11:26:21;;;;;;;25.52;5.30;;;;;;;11.40;58.23;100598.13;4856603;28;121650;-90
2022/02/05 11:29:11;;;;;;;28.45;6.05;;;;;;;11.51;57.92;100622.38;4879628;28;122926;-89
2022/02/05 11:31:39;;;;;;;29.35;4.90;;;;;;;11.54;59.80;100607.72;4870896;28;122196;-89
2022/02/05 11:34:26;;;;;;;31.88;6.32;;;;;;;11.66;58.56;100618.56;4887419;28;123408;-89
2022/02/05 11:37:07;;;;;;;29.80;5.60;;;;;;;11.68;59.11;100615.38;4875220;28;119658;-88
2022/02/05 11:39:51;;;;;;;25.00;6.38;;;;;;;11.74;59.31;100613.53;4858472;28;121499;-89
2022/02/05 11:42:23;;;;;;;32.17;5.63;;;;;;;11.81;60.89;100602.22;4874039;28;123597;-89
2022/02/05 11:44:52;;;;;;;26.08;5.35;;;;;;;11.81;61.51;100585.75;4859077;28;119881;-89
2022/02/05 11:47:18;;;;;;;29.92;5.38;;;;;;;11.94;61.69;100605.59;4872744;28;122662;-89
2022/02/05 11:50:07;;;;;;;25.23;5.13;;;;;;;11.94;59.80;100600.09;4870101;28;123112;-89
2022/02/05 11:52:35;;;;;;;24.33;5.05;;;;;;;12.00;61.59;100608.47;4887503;28;119968;-89
2022/02/05 11:55:11;;;;;;;25.98;4.57;;;;;;;11.96;59.47;100610.63;4873755;28;120076;-89
2022/02/05 11:57:42;;;;;;;24.02;4.82;;;;;;;12.01;58.94;100620.22;4858508;28;120457;-88
2022/02/05 12:00:11;;;;;;;25.33;4.68;;;;;;;11.93;56.83;100615.06;4857141;28;122718;-89
2022/02/05 12:02:45;;;;;;;24.00;4.43;;;;;;;11.96;57.82;100613.38;4887648;28;124220;-89
2022/02/05 12:05:20;;;;;;;26.95;4.78;;;;;;;11.95;59.61;100606.34;4857404;28;120704;-90
2022/02/05 12:08:21;;;;;;;24.63;6.05;;;;;;;12.04;58.38;100616.56;4885290;28;122375;-89
2022/02/05 12:10:51;;;;;;;28.27;5.57;;;;;;;12.03;57.94;100593.78;4868239;28;122386;-89
2022/02/05 12:13:21;;;;;;;21.67;4.97;;;;;;;12.13;57.56;100611.81;4849679;28;120469;-89
2022/02/05 12:15:54;;;;;;;25.73;5.22;;;;;;;12.12;57.37;100602.03;4870966;28;122392;-89
2022/02/05 12:18:24;;;;;;;28.57;5.10;;;;;;;11.99;59.07;100598.69;4869701;28;120279;-89
2022/02/05 12:20:53;;;;;;;24.55;4.88;;;;;;;12.02;60.78;100597.78;4852451;28;123407;-89
2022/02/05 12:23:52;;;;;;;22.42;4.68;;;;;;;12.06;61.32;100595.63;4865737;28;123629;-88
2022/02/05 12:26:25;;;;;;;22.67;4.57;;;;;;;12.01;58.80;100579.00;4870105;28;120048;-88
2022/02/05 12:28:56;;;;;;;19.83;6.05;;;;;;;12.02;59.44;100591.50;4868317;28;122264;-89
2022/02/05 12:31:21;;;;;;;19.90;5.15;;;;;;;11.95;59.00;100581.59;4885691;28;121489;-89
2022/02/05 12:33:56;;;;;;;21.55;5.65;;;;;;;11.91;60.23;100584.53;4870713;28;123845;-88
2022/02/05 12:36:34;;;;;;;21.05;5.22;;;;;;;11.85;59.39;100574.63;4868905;28;122721;-89
2022/02/05 12:39:03;;;;;;;27.25;5.38;;;;;;;11.91;59.41;100583.75;4868748;28;119647;-88
2022/02/05 12:41:30;;;;;;;25.25;4.93;;;;;;;11.64;59.89;100537.84;4885362;28;119640;-88
2022/02/05 12:44:03;;;;;;;30.40;5.10;;;;;;;11.98;60.52;100588.94;4865183;28;124021;-89
2022/02/05 12:46:35;;;;;;;23.85;4.95;;;;;;;11.93;58.65;100565.59;4867603;28;119762;-88
2022/02/05 12:49:06;;;;;;;26.35;5.10;;;;;;;11.86;59.52;100565.16;4856225;28;123018;-88
2022/02/05 12:51:32;;;;;;;26.50;5.35;;;;;;;11.67;59.63;100537.66;4878999;28;120461;-89
2022/02/05 12:54:15;;;;;;;27.02;5.35;;;;;;;11.92;58.93;100557.78;4838866;28;122156;-89
2022/02/05 12:56:42;;;;;;;27.60;5.55;;;;;;;12.13;58.96;100567.81;4887574;28;120616;-90
2022/02/05 12:59:13;;;;;;;25.98;5.35;;;;;;;12.19;59.42;100574.19;4858089;28;123113;-89
2022/02/05 13:01:52;;;;;;;22.25;4.43;;;;;;;12.10;59.21;100562.50;4868102;28;123021;-89
2022/02/05 13:04:18;;;;;;;27.27;4.45;;;;;;;12.18;59.02;100564.44;4868676;28;123971;-89
2022/02/05 13:06:45;;;;;;;24.33;5.28;;;;;;;11.99;58.00;100529.97;4838239;28;120066;-89
2022/02/05 13:09:20;;;;;;;31.10;5.38;;;;;;;12.17;57.02;100562.16;4881640;28;123443;-89
2022/02/05 13:11:52;;;;;;;18.48;4.82;;;;;;;12.08;59.19;100534.69;4855823;28;122998;-89
2022/02/05 13:14:18;;;;;;;22.58;5.35;;;;;;;11.92;58.92;100513.81;4850817;28;120726;-89
2022/02/05 13:16:47;;;;;;;19.75;4.13;;;;;;;11.81;59.25;100484.06;4839069;28;122467;-89
2022/02/05 13:19:23;;;;;;;24.73;4.53;;;;;;;12.18;58.99;100531.44;4853655;28;123432;-89
2022/02/05 13:28:00;;;;;;;30.90;5.68;;;;;;;12.01;59.13;100526.75;4867607;28;121022;-89
2022/02/05 13:33:49;;;;;;;30.98;5.50;;;;;;;11.88;57.37;100532.47;4867791;28;123471;-88
2022/02/05 13:39:07;;;;;;;30.02;5.47;;;;;;;11.92;58.46;100535.81;4851649;28;123148;-89
2022/02/05 13:41:39;;;;;;;31.10;6.45;;;;;;;11.92;59.87;100536.56;4852853;28;123121;-88
2022/02/05 13:44:05;;;;;;;29.13;6.00;;;;;;;11.90;57.74;100532.75;4885822;28;119925;-88
2022/02/05 13:46:37;;;;;;;30.13;5.53;;;;;;;11.61;58.13;100479.09;4875156;28;122487;-88
2022/02/05 13:49:13;;;;;;;29.77;5.90;;;;;;;11.91;60.16;100531.53;4853999;28;120422;-89
2022/02/05 13:51:39;;;;;;;30.17;6.28;;;;;;;11.69;59.26;100494.00;4868960;28;122224;-89
2022/02/05 13:54:05;;;;;;;26.50;6.55;;;;;;;11.79;59.84;100507.75;4879587;28;125124;-89
2022/02/05 13:56:35;;;;;;;31.75;7.13;;;;;;;11.95;59.05;100535.66;4855348;28;119703;-89
2022/02/05 13:59:02;;;;;;;28.88;6.05;;;;;;;11.61;60.71;100492.06;4858299;28;122362;-89
2022/02/05 14:01:34;;;;;;;39.53;7.82;;;;;;;11.89;58.73;100536.75;4851137;28;122519;-90
2022/02/05 14:04:19;;;;;;;26.15;6.15;;;;;;;11.97;58.12;100538.69;4849061;28;120244;-90
2022/02/05 14:07:03;;;;;;;35.08;5.97;;;;;;;11.89;62.12;100520.25;4855274;28;122489;-88
2022/02/05 14:09:34;;;;;;;26.42;5.50;;;;;;;11.80;60.50;100506.50;4858341;28;123870;-87
2022/02/05 14:12:15;;;;;;;31.27;6.25;;;;;;;11.97;59.41;100524.94;4848713;28;122892;-89
2022/02/05 14:14:41;;;;;;;34.55;7.13;;;;;;;11.94;59.21;100528.63;4883400;28;120412;-91
2022/02/05 14:17:17;;;;;;;32.05;5.50;;;;;;;11.94;58.78;100517.63;4855794;28;119770;-88
2022/02/05 14:19:44;;;;;;;28.95;5.85;;;;;;;11.70;61.72;100486.53;4850830;28;124801;-88
2022/02/05 14:22:29;;;;;;;32.63;5.60;;;;;;;11.73;63.62;100501.31;4838671;28;123702;-88
2022/02/05 14:25:33;;;;;;;31.55;5.70;;;;;;;11.58;62.63;100469.00;4850163;28;121718;-90
2022/02/05 14:28:00;;;;;;;25.85;6.07;;;;;;;11.87;61.98;100506.22;4861929;28;121369;-89